createdAt,value
2022-10-05T00:01:45.615Z,101060.34
2022-10-05T00:04:15.690Z,101059.28
2022-10-05T00:06:44.896Z,101065.56
2022-10-05T00:09:21.047Z,101058.41
2022-10-05T00:11:49.234Z,101050.16
2022-10-05T00:14:28.598Z,101052.06
2022-10-05T00:16:56.237Z,101045.88
2022-10-05T00:19:31.241Z,101049.28
2022-10-05T00:22:09.562Z,101055.50
2022-10-05T00:24:36.663Z,101052.25
2022-10-05T00:27:14.957Z,101041.41
2022-10-05T00:29:41.704Z,101051.69
2022-10-05T00:32:10.308Z,101047.13
2022-10-05T00:34:37.613Z,101051.03
2022-10-05T00:37:05.928Z,101060.25
2022-10-05T00:39:34.699Z,101045.78
2022-10-05T00:42:39.067Z,101052.84
2022-10-05T00:45:24.998Z,101053.03
2022-10-05T00:48:22.844Z,101040.19
2022-10-05T00:51:13.433Z,101034.97
2022-10-05T00:54:04.429Z,101036.75
2022-10-05T00:57:30.038Z,101029.66
2022-10-05T01:00:08.110Z,101031.44
2022-10-05T01:02:50.704Z,101023.34
2022-10-05T01:05:36.404Z,101020.78
2022-10-05T01:08:34.332Z,101016.59
2022-10-05T01:11:12.292Z,101019.38
2022-10-05T01:14:02.314Z,101023.66
2022-10-05T01:16:49.966Z,101024.59
2022-10-05T01:19:37.383Z,101024.22
2022-10-05T01:22:14.288Z,101017.75
2022-10-05T01:25:14.520Z,101012.16
2022-10-05T01:27:53.554Z,101013.19
2022-10-05T01:30:21.502Z,101005.09
2022-10-05T01:33:12.597Z,101012.53
2022-10-05T01:36:00.500Z,101006.44
2022-10-05T01:38:37.300Z,101019.75
2022-10-05T01:41:15.078Z,101017.47
2022-10-05T01:44:09.039Z,101013.00
2022-10-05T01:46:43.862Z,101020.03
2022-10-05T01:49:21.989Z,101013.78
2022-10-05T01:52:01.961Z,101014.50
2022-10-05T01:54:56.856Z,101010.22
2022-10-05T01:57:28.271Z,101011.28
2022-10-05T02:00:07.762Z,101019.53
2022-10-05T02:03:04.832Z,101020.66
2022-10-05T02:05:49.931Z,101019.69
2022-10-05T02:08:20.240Z,101027.63
2022-10-05T02:10:53.894Z,101027.03
2022-10-05T02:13:40.849Z,101024.66
2022-10-05T02:16:39.332Z,101019.22
2022-10-05T02:19:14.799Z,101015.53
2022-10-05T02:21:45.779Z,101024.47
2022-10-05T02:24:21.724Z,101027.31
2022-10-05T02:26:50.419Z,101022.91
2022-10-05T02:29:18.710Z,101018.69
2022-10-05T02:31:50.107Z,101025.09
2022-10-05T02:34:27.606Z,101026.63
2022-10-05T02:37:21.538Z,101026.22
2022-10-05T02:39:55.390Z,101024.53
2022-10-05T02:42:40.107Z,101024.44
2022-10-05T02:45:39.452Z,101019.69
2022-10-05T02:48:13.166Z,101015.03
2022-10-05T02:51:09.438Z,101016.84
2022-10-05T02:54:01.212Z,101015.13
2022-10-05T02:56:51.344Z,101012.56
2022-10-05T02:59:40.214Z,101013.13
2022-10-05T03:02:16.169Z,101006.69
2022-10-05T03:04:46.866Z,101002.28
2022-10-05T03:07:36.748Z,101002.41
2022-10-05T03:10:15.578Z,100999.84
2022-10-05T03:12:55.830Z,100997.28
2022-10-05T03:15:51.727Z,101001.22
2022-10-05T03:18:30.766Z,100994.88
2022-10-05T03:21:14.562Z,100995.66
2022-10-05T03:24:08.191Z,100994.78
2022-10-05T03:26:39.655Z,100986.63
2022-10-05T03:29:40.156Z,100988.50
2022-10-05T03:32:44.108Z,100975.31
2022-10-05T03:35:48.971Z,100972.75
2022-10-05T03:38:43.136Z,100974.63
2022-10-05T03:41:30.120Z,100971.22
2022-10-05T03:44:09.610Z,100962.31
2022-10-05T03:47:01.585Z,100962.31
2022-10-05T03:49:39.216Z,100960.69
2022-10-05T03:52:26.524Z,100960.50
2022-10-05T03:55:01.498Z,100947.38
2022-10-05T03:57:33.586Z,100948.34
2022-10-05T04:00:18.398Z,100947.56
2022-10-05T04:03:21.367Z,100957.34
2022-10-05T04:05:58.232Z,100951.66
2022-10-05T04:08:55.048Z,100950.53
2022-10-05T04:11:28.021Z,100944.44
2022-10-05T04:14:01.354Z,100943.28
2022-10-05T04:16:32.324Z,100945.78
2022-10-05T04:19:04.561Z,100942.34
2022-10-05T04:21:57.997Z,100945.22
2022-10-05T04:24:47.338Z,100948.34
2022-10-05T04:27:18.424Z,100950.53
2022-10-05T04:29:56.116Z,100945.84
2022-10-05T04:32:31.425Z,100949.88
2022-10-05T04:35:13.255Z,100952.69
2022-10-05T04:37:52.892Z,100947.38
2022-10-05T04:40:57.618Z,100948.25
2022-10-05T04:43:39.790Z,100951.28
2022-10-05T04:46:31.141Z,100950.53
2022-10-05T04:49:14.654Z,100940.84
2022-10-05T04:52:01.455Z,100947.56
2022-10-05T04:54:37.226Z,100955.66
2022-10-05T04:57:21.380Z,100961.72
2022-10-05T05:00:05.825Z,100953.00
2022-10-05T05:03:04.767Z,100949.75
2022-10-05T05:06:16.271Z,100944.53
2022-10-05T05:09:06.726Z,100949.28
2022-10-05T05:12:10.844Z,100946.81
2022-10-05T05:14:55.692Z,100958.69
2022-10-05T05:17:47.386Z,100959.06
2022-10-05T05:20:27.075Z,100952.97
2022-10-05T05:23:19.550Z,100948.53
2022-10-05T05:25:57.754Z,100945.66
2022-10-05T05:28:48.635Z,100946.50
2022-10-05T05:31:27.901Z,100948.22
2022-10-05T05:34:19.968Z,100938.28
2022-10-05T05:37:05.772Z,100931.13
2022-10-05T05:39:39.132Z,100927.63
2022-10-05T05:42:33.518Z,100922.31
2022-10-05T05:45:07.199Z,100925.81
2022-10-05T05:47:37.842Z,100926.50
2022-10-05T05:50:24.683Z,100918.59
2022-10-05T05:53:03.761Z,100917.72
2022-10-05T05:55:42.011Z,100922.88
2022-10-05T05:58:23.245Z,100929.53
2022-10-05T06:00:52.228Z,100943.50
2022-10-05T06:03:42.935Z,100939.78
2022-10-05T06:06:14.378Z,100938.75
2022-10-05T06:08:50.269Z,100947.66
2022-10-05T06:11:41.780Z,100944.91
2022-10-05T06:14:16.091Z,100942.16
2022-10-05T06:16:46.530Z,100938.34
2022-10-05T06:19:16.941Z,100934.56
2022-10-05T06:21:53.467Z,100938.19
2022-10-05T06:24:27.411Z,100939.41
2022-10-05T06:27:19.060Z,100944.16
2022-10-05T06:30:01.987Z,100945.75
2022-10-05T06:32:48.157Z,100954.13
2022-10-05T06:35:27.801Z,100953.09
2022-10-05T06:38:09.922Z,100953.00
2022-10-05T06:40:57.801Z,100952.81
2022-10-05T06:43:40.040Z,100954.72
2022-10-05T06:46:17.816Z,100949.97
2022-10-05T06:49:20.773Z,100948.63
2022-10-05T06:52:26.859Z,100947.78
2022-10-05T06:55:13.936Z,100942.72
2022-10-05T06:57:56.176Z,100950.81
2022-10-05T07:00:25.523Z,100945.09
2022-10-05T07:03:05.877Z,100940.53
2022-10-05T07:05:44.624Z,100938.22
2022-10-05T07:08:36.375Z,100939.63
2022-10-05T07:11:20.893Z,100943.28
2022-10-05T07:14:29.441Z,100951.91
2022-10-05T07:17:15.343Z,100950.84
2022-10-05T07:20:01.109Z,100965.06
2022-10-05T07:22:50.541Z,100964.69
2022-10-05T07:25:29.436Z,100959.56
2022-10-05T07:28:17.703Z,100955.09
2022-10-05T07:30:58.486Z,100950.56
2022-10-05T07:33:35.324Z,100948.22
2022-10-05T07:36:37.393Z,100943.31
2022-10-05T07:39:17.815Z,100955.44
2022-10-05T07:42:19.190Z,100966.34
2022-10-05T07:44:53.060Z,100952.50
2022-10-05T07:47:36.153Z,100960.38
2022-10-05T07:50:19.670Z,100957.81
2022-10-05T07:52:54.833Z,100953.56
2022-10-05T07:55:47.307Z,100960.94
2022-10-05T07:58:31.524Z,100959.56
2022-10-05T08:01:11.217Z,100966.06
2022-10-05T08:03:55.420Z,100961.06
2022-10-05T08:06:39.125Z,100964.34
2022-10-05T08:09:20.232Z,100945.88
2022-10-05T08:12:02.266Z,100941.81
2022-10-05T08:14:35.846Z,100943.59
2022-10-05T08:17:06.135Z,100932.69
2022-10-05T08:19:40.382Z,100925.19
2022-10-05T08:22:10.096Z,100930.19
2022-10-05T08:25:02.159Z,100920.59
2022-10-05T08:27:42.354Z,100921.47
2022-10-05T08:30:11.953Z,100918.00
2022-10-05T08:32:47.700Z,100912.66
2022-10-05T08:35:25.548Z,100911.56
2022-10-05T08:37:52.636Z,100909.75
2022-10-05T08:40:19.307Z,100906.22
2022-10-05T08:43:14.788Z,100912.09
2022-10-05T08:46:07.831Z,100905.19
2022-10-05T08:48:56.615Z,100900.03
2022-10-05T08:51:31.789Z,100895.22
2022-10-05T08:54:17.488Z,100898.97
2022-10-05T08:57:08.669Z,100898.59
2022-10-05T08:59:54.165Z,100900.00
2022-10-05T09:02:39.197Z,100899.84
2022-10-05T09:05:42.606Z,100893.84
2022-10-05T09:08:36.016Z,100891.94
2022-10-05T09:11:07.301Z,100881.72
2022-10-05T09:14:01.487Z,100883.31
2022-10-05T09:16:47.180Z,100880.31
2022-10-05T09:19:52.623Z,100886.84
2022-10-05T09:22:40.920Z,100893.06
2022-10-05T09:25:33.111Z,100893.69
2022-10-05T09:28:18.321Z,100893.94
2022-10-05T09:30:51.694Z,100889.06
2022-10-05T09:33:43.494Z,100874.97
2022-10-05T09:36:25.433Z,100881.78
2022-10-05T09:39:23.932Z,100875.34
2022-10-05T09:42:09.011Z,100873.50
2022-10-05T09:44:58.202Z,100867.28
2022-10-05T09:47:50.722Z,100880.19
2022-10-05T09:50:40.982Z,100879.09
2022-10-05T09:53:46.252Z,100871.91
2022-10-05T09:56:34.942Z,100868.75
2022-10-05T09:59:17.551Z,100855.72
2022-10-05T10:02:15.383Z,100867.66
2022-10-05T10:05:05.767Z,100850.50
2022-10-05T10:07:55.932Z,100868.63
2022-10-05T10:10:38.960Z,100863.53
2022-10-05T10:13:40.767Z,100865.47
2022-10-05T10:16:45.939Z,100858.41
2022-10-05T10:19:41.318Z,100860.97
2022-10-05T10:22:20.214Z,100863.88
2022-10-05T10:25:31.833Z,100865.28
2022-10-05T10:28:10.690Z,100871.25
2022-10-05T10:31:04.136Z,100889.16
2022-10-05T10:33:52.214Z,100889.59
2022-10-05T10:36:32.785Z,100883.03
2022-10-05T10:39:12.162Z,100887.50
2022-10-05T10:41:45.661Z,100880.63
2022-10-05T10:44:24.211Z,100886.31
2022-10-05T10:46:57.458Z,100889.91
2022-10-05T10:49:53.552Z,100896.34
2022-10-05T10:52:33.080Z,100870.28
2022-10-05T10:55:19.096Z,100880.16
2022-10-05T10:58:18.178Z,100883.34
2022-10-05T11:01:06.250Z,100873.69
2022-10-05T11:03:44.069Z,100869.47
2022-10-05T11:06:33.025Z,100872.38
2022-10-05T11:09:25.724Z,100865.25
2022-10-05T11:12:45.392Z,100858.94
2022-10-05T11:15:20.686Z,100864.00
2022-10-05T11:18:10.633Z,100852.94
2022-10-05T11:20:56.347Z,100853.13
2022-10-05T11:23:51.189Z,100836.84
2022-10-05T11:26:43.126Z,100836.88
2022-10-05T11:29:40.554Z,100839.16
2022-10-05T11:32:31.113Z,100821.00
2022-10-05T11:35:24.828Z,100815.91
2022-10-05T11:38:07.191Z,100815.63
2022-10-05T11:40:59.260Z,100823.53
2022-10-05T11:43:32.511Z,100829.22
2022-10-05T11:46:17.280Z,100823.53
2022-10-05T11:49:14.628Z,100816.44
2022-10-05T11:51:55.446Z,100813.63
2022-10-05T11:54:46.606Z,100802.50
2022-10-05T11:57:41.255Z,100793.94
2022-10-05T12:00:18.671Z,100795.69
2022-10-05T12:03:16.451Z,100797.56
2022-10-05T12:06:02.891Z,100794.09
2022-10-05T12:09:08.162Z,100805.03
2022-10-05T12:12:01.147Z,100792.97
2022-10-05T12:14:33.670Z,100788.16
2022-10-05T12:17:31.267Z,100779.88
2022-10-05T12:20:01.696Z,100769.94
2022-10-05T12:22:34.958Z,100767.66
2022-10-05T12:25:31.903Z,100775.81
2022-10-05T12:28:05.392Z,100767.13
2022-10-05T12:30:54.824Z,100773.41
2022-10-05T12:33:49.595Z,100778.31
2022-10-05T12:37:03.522Z,100776.34
2022-10-05T12:39:37.217Z,100767.13
2022-10-05T12:42:28.218Z,100757.03
2022-10-05T12:45:22.271Z,100760.50
2022-10-05T12:48:15.960Z,100766.81
2022-10-05T12:50:48.543Z,100766.13
2022-10-05T12:53:20.425Z,100759.78
2022-10-05T12:56:10.385Z,100751.41
2022-10-05T12:58:50.573Z,100747.59
2022-10-05T13:01:36.256Z,100739.38
2022-10-05T13:04:40.580Z,100737.81
2022-10-05T13:07:29.176Z,100751.19
2022-10-05T13:10:01.525Z,100743.13
2022-10-05T13:12:51.653Z,100739.97
2022-10-05T13:15:29.615Z,100737.09
2022-10-05T13:17:56.296Z,100730.22
2022-10-05T13:20:31.373Z,100726.50
2022-10-05T13:23:09.699Z,100735.34
2022-10-05T13:25:39.858Z,100735.50
2022-10-05T13:28:32.123Z,100730.69
2022-10-05T13:31:27.007Z,100725.31
2022-10-05T13:34:06.978Z,100732.16
2022-10-05T13:36:39.755Z,100733.84
2022-10-05T13:39:28.379Z,100726.75
2022-10-05T13:42:15.773Z,100728.78
2022-10-05T13:44:45.011Z,100726.44
2022-10-05T13:47:17.316Z,100716.84
2022-10-05T13:50:04.101Z,100716.00
2022-10-05T13:52:42.422Z,100702.44
2022-10-05T13:55:26.878Z,100706.72
2022-10-05T13:58:08.812Z,100708.59
2022-10-05T14:00:46.857Z,100706.38
2022-10-05T14:03:34.466Z,100700.78
2022-10-05T14:06:05.438Z,100692.53
2022-10-05T14:08:34.366Z,100700.66
2022-10-05T14:11:21.408Z,100691.69
2022-10-05T14:13:49.223Z,100691.03
2022-10-05T14:16:22.461Z,100679.53
2022-10-05T14:18:59.075Z,100714.50
2022-10-05T14:21:29.640Z,100682.91
2022-10-05T14:23:58.873Z,100685.28
2022-10-05T14:26:25.548Z,100670.75
2022-10-05T14:29:13.922Z,100679.53
2022-10-05T14:31:50.123Z,100670.09
2022-10-05T14:34:26.888Z,100686.97
2022-10-05T14:37:18.110Z,100666.19
2022-10-05T14:39:49.952Z,100667.88
2022-10-05T14:42:19.918Z,100654.84
2022-10-05T14:44:59.512Z,100673.59
2022-10-05T14:47:29.829Z,100660.56
2022-10-05T14:50:16.951Z,100660.41
2022-10-05T14:52:51.645Z,100655.19
2022-10-05T14:55:44.890Z,100659.09
2022-10-05T14:58:39.481Z,100658.75
2022-10-05T15:01:28.795Z,100655.69
2022-10-05T15:04:23.685Z,100656.88
2022-10-05T15:07:20.323Z,100654.50
2022-10-05T15:09:56.080Z,100655.84
2022-10-05T15:12:55.209Z,100658.56
2022-10-05T15:15:37.203Z,100653.16
2022-10-05T15:18:15.123Z,100650.81
2022-10-05T15:21:11.185Z,100670.81
2022-10-05T15:23:41.663Z,100649.09
2022-10-05T15:26:11.477Z,100653.38
2022-10-05T15:28:54.451Z,100644.31
2022-10-05T15:31:40.074Z,100641.19
2022-10-05T15:34:20.933Z,100650.88
2022-10-05T15:37:22.684Z,100640.69
2022-10-05T15:40:00.209Z,100638.31
2022-10-05T15:42:38.562Z,100647.22
2022-10-05T15:45:26.099Z,100653.19
2022-10-05T15:48:20.213Z,100647.13
2022-10-05T15:51:10.839Z,100662.28
2022-10-05T15:53:39.858Z,100655.66
2022-10-05T15:56:20.839Z,100638.34
2022-10-05T15:58:55.899Z,100651.91
2022-10-05T16:01:31.670Z,100639.50
2022-10-05T16:04:08.111Z,100639.97
2022-10-05T16:07:05.774Z,100642.03
2022-10-05T16:10:09.743Z,100650.06
2022-10-05T16:13:26.382Z,100635.78
2022-10-05T16:16:16.904Z,100646.75
2022-10-05T16:18:47.741Z,100645.19
2022-10-05T16:21:52.947Z,100645.22
2022-10-05T16:24:22.634Z,100646.44
2022-10-05T16:26:59.908Z,100644.50
2022-10-05T16:29:54.526Z,100641.75
2022-10-05T16:32:30.348Z,100639.69
2022-10-05T16:35:19.542Z,100640.81
2022-10-05T16:37:46.225Z,100650.59
2022-10-05T16:40:51.071Z,100639.88
2022-10-05T16:43:27.396Z,100646.13
2022-10-05T16:46:27.506Z,100644.72
2022-10-05T16:49:19.919Z,100642.34
2022-10-05T16:52:04.265Z,100642.91
2022-10-05T16:55:05.134Z,100642.09
2022-10-05T16:57:39.950Z,100637.84
2022-10-05T17:00:19.839Z,100643.91
2022-10-05T17:03:22.043Z,100648.00
2022-10-05T17:06:07.404Z,100643.50
2022-10-05T17:09:08.986Z,100652.09
2022-10-05T17:11:41.810Z,100647.59
2022-10-05T17:14:21.073Z,100664.00
2022-10-05T17:17:26.364Z,100660.44
2022-10-05T17:19:56.255Z,100659.72
2022-10-05T17:22:37.668Z,100657.63
2022-10-05T17:25:13.187Z,100658.28
2022-10-05T17:27:58.147Z,100666.47
2022-10-05T17:30:40.161Z,100668.44
2022-10-05T17:33:14.274Z,100667.00
2022-10-05T17:35:54.615Z,100671.66
2022-10-05T17:38:23.425Z,100670.81
2022-10-05T17:41:12.238Z,100682.41
2022-10-05T17:43:39.221Z,100665.84
2022-10-05T17:46:10.399Z,100667.84
2022-10-05T17:48:49.352Z,100674.03
2022-10-05T17:51:35.742Z,100668.69
2022-10-05T17:54:40.740Z,100670.81
2022-10-05T17:57:07.445Z,100659.34
2022-10-05T17:59:46.207Z,100666.41
2022-10-05T18:02:40.728Z,100663.13
2022-10-05T18:05:14.640Z,100665.81
2022-10-05T18:07:43.014Z,100659.03
2022-10-05T18:10:09.930Z,100665.38
2022-10-05T18:12:36.712Z,100664.94
2022-10-05T18:15:06.506Z,100665.63
2022-10-05T18:18:24.413Z,100656.84
2022-10-05T18:21:23.611Z,100659.19
2022-10-05T18:23:59.489Z,100655.09
2022-10-05T18:26:44.396Z,100653.66
2022-10-05T18:29:43.599Z,100653.94
2022-10-05T18:32:40.819Z,100654.00
2022-10-05T18:35:13.675Z,100645.59
2022-10-05T18:37:42.966Z,100649.09
2022-10-05T18:40:30.557Z,100646.97
2022-10-05T18:43:23.646Z,100646.97
2022-10-05T18:46:22.128Z,100644.69
2022-10-05T18:49:16.473Z,100646.78
2022-10-05T18:52:23.534Z,100646.91
2022-10-05T18:55:19.374Z,100647.84
2022-10-05T18:58:10.019Z,100647.00
2022-10-05T19:00:45.683Z,100649.69
2022-10-05T19:03:19.127Z,100650.25
2022-10-05T19:06:13.479Z,100650.97
2022-10-05T19:08:55.336Z,100646.28
2022-10-05T19:11:28.915Z,100648.81
2022-10-05T19:14:20.837Z,100645.66
2022-10-05T19:17:02.813Z,100657.59
2022-10-05T19:19:48.959Z,100659.44
2022-10-05T19:22:23.710Z,100664.94
2022-10-05T19:25:21.842Z,100670.31
2022-10-05T19:28:01.495Z,100672.84
2022-10-05T19:30:50.109Z,100680.75
2022-10-05T19:33:35.923Z,100692.06
2022-10-05T19:36:12.253Z,100687.81
2022-10-05T19:39:18.201Z,100691.47
2022-10-05T19:42:02.313Z,100691.00
2022-10-05T19:44:57.587Z,100694.41
2022-10-05T19:48:12.650Z,100697.13
2022-10-05T19:50:40.012Z,100691.44
2022-10-05T19:53:24.377Z,100692.88
2022-10-05T19:55:51.705Z,100696.44
2022-10-05T19:58:27.386Z,100702.00
2022-10-05T20:01:02.401Z,100706.75
2022-10-05T20:03:31.360Z,100707.34
2022-10-05T20:06:00.211Z,100707.84
2022-10-05T20:08:32.132Z,100712.38
2022-10-05T20:11:11.327Z,100711.78
2022-10-05T20:13:41.835Z,100720.78
2022-10-05T20:16:32.201Z,100717.25
2022-10-05T20:19:17.751Z,100717.41
2022-10-05T20:21:56.791Z,100726.06
2022-10-05T20:24:25.858Z,100734.47
2022-10-05T20:27:02.734Z,100733.63
2022-10-05T20:29:35.642Z,100740.22
2022-10-05T20:32:12.345Z,100735.88
2022-10-05T20:34:43.773Z,100750.84
2022-10-05T20:37:12.291Z,100748.53
2022-10-05T20:39:39.869Z,100751.13
2022-10-05T20:42:07.842Z,100749.16
2022-10-05T20:44:36.367Z,100746.59
2022-10-05T20:47:03.779Z,100763.00
2022-10-05T20:49:31.882Z,100753.66
2022-10-05T20:51:59.249Z,100766.03
2022-10-05T20:54:26.790Z,100770.41
2022-10-05T20:56:55.776Z,100761.56
2022-10-05T20:59:23.809Z,100759.22
2022-10-05T21:01:50.761Z,100763.72
2022-10-05T21:04:19.471Z,100755.88
2022-10-05T21:06:46.702Z,100763.72
2022-10-05T21:09:15.120Z,100769.19
2022-10-05T21:11:42.545Z,100766.84
2022-10-05T21:14:10.520Z,100775.28
2022-10-05T21:16:38.395Z,100768.84
2022-10-05T21:19:07.157Z,100779.53
2022-10-05T21:21:34.059Z,100767.63
2022-10-05T21:24:00.798Z,100783.06
2022-10-05T21:26:29.133Z,100781.97
2022-10-05T21:28:56.680Z,100778.66
2022-10-05T21:31:23.477Z,100779.06
2022-10-05T21:33:50.204Z,100786.56
2022-10-05T21:36:21.131Z,100777.22
2022-10-05T21:38:51.840Z,100789.25
2022-10-05T21:41:18.767Z,100776.97
2022-10-05T21:43:45.894Z,100781.81
2022-10-05T21:46:20.352Z,100790.47
2022-10-05T21:48:48.397Z,100790.06
2022-10-05T21:51:17.298Z,100791.19
2022-10-05T21:53:49.097Z,100792.63
2022-10-05T21:56:18.334Z,100795.69
2022-10-05T21:58:45.891Z,100799.72
2022-10-05T22:01:12.756Z,100793.38
2022-10-05T22:03:39.617Z,100802.16
2022-10-05T22:06:07.171Z,100795.47
2022-10-05T22:08:34.682Z,100794.38
2022-10-05T22:11:10.262Z,100802.63
2022-10-05T22:13:48.267Z,100799.59
2022-10-05T22:16:16.326Z,100804.09
2022-10-05T22:18:43.284Z,100798.50
2022-10-05T22:21:12.254Z,100803.38
2022-10-05T22:23:40.202Z,100801.72
2022-10-05T22:26:08.773Z,100809.84
2022-10-05T22:28:35.703Z,100809.97
2022-10-05T22:31:04.374Z,100809.84
2022-10-05T22:33:31.463Z,100813.00
2022-10-05T22:35:59.372Z,100810.09
2022-10-05T22:38:26.896Z,100807.66
2022-10-05T22:40:53.801Z,100810.19
2022-10-05T22:43:20.528Z,100821.72
2022-10-05T22:45:47.427Z,100807.13
2022-10-05T22:48:14.363Z,100820.28
2022-10-05T22:50:44.301Z,100820.50
2022-10-05T22:53:11.781Z,100816.16
2022-10-05T22:55:39.000Z,100821.94
2022-10-05T22:58:05.944Z,100825.31
2022-10-05T23:00:56.444Z,100842.34
2022-10-05T23:03:20.283Z,100840.41
2022-10-05T23:05:46.995Z,100828.56
2022-10-05T23:08:13.692Z,100838.16
2022-10-05T23:10:40.453Z,100825.66
2022-10-05T23:13:08.001Z,100833.91
2022-10-05T23:15:34.701Z,100831.41
2022-10-05T23:18:01.488Z,100837.13
2022-10-05T23:20:28.265Z,100836.38
2022-10-05T23:22:55.118Z,100835.91
2022-10-05T23:25:22.360Z,100833.97
2022-10-05T23:27:49.352Z,100832.13
2022-10-05T23:30:16.184Z,100837.13
2022-10-05T23:32:44.547Z,100853.59
2022-10-05T23:35:12.887Z,100850.78
2022-10-05T23:37:43.081Z,100857.38
2022-10-05T23:40:12.435Z,100858.94
2022-10-05T23:42:40.148Z,100856.41
2022-10-05T23:45:10.927Z,100862.75
2022-10-05T23:47:38.766Z,100856.75
2022-10-05T23:50:07.154Z,100861.38
2022-10-05T23:52:35.059Z,100865.41
2022-10-05T23:55:05.598Z,100859.56
2022-10-05T23:57:32.454Z,100861.84
